Time;durP1;ratioP1;P1;durP2;ratioP2;P2;SDS_P1;SDS_P2;PMS_P1;PMS_P2;Temp;Humidity;BMP_temperature;BMP_pressure;BME280_temperature;BME280_humidity;BME280_pressure;Samples;Min_cycle;Max_cycle;Signal;HPM_P1;HPM_P2
2022/06/14 00:01:39;;;;;;;30.10;7.37;;;;;;;;;;5031614;28;20468;-70
2022/06/14 00:04:06;;;;;;;22.73;7.20;;;;;;;;;;5032079;28;20483;-71
2022/06/14 00:06:35;;;;;;;20.53;7.13;;;;;;;;;;5032096;28;20437;-71
2022/06/14 00:09:04;;;;;;;23.03;8.07;;;;;;;;;;5032036;28;20436;-71
2022/06/14 00:11:33;;;;;;;40.17;8.17;;;;;;;;;;5031621;28;20500;-71
2022/06/14 00:14:01;;;;;;;20.70;7.33;;;;;;;;;;5032142;28;20436;-70
2022/06/14 00:16:30;;;;;;;23.73;7.90;;;;;;;;;;5032063;28;20447;-71
2022/06/14 00:18:57;;;;;;;18.27;7.53;;;;;;;;;;5031950;28;20541;-71
2022/06/14 00:21:25;;;;;;;23.47;7.17;;;;;;;;;;5031925;28;20476;-71
2022/06/14 00:23:52;;;;;;;24.63;7.63;;;;;;;;;;5031790;28;20455;-71
2022/06/14 00:26:21;;;;;;;24.10;7.13;;;;;;;;;;5031632;28;20444;-71
2022/06/14 00:28:48;;;;;;;22.87;7.87;;;;;;;;;;5031920;28;20478;-71
2022/06/14 00:31:17;;;;;;;23.80;8.33;;;;;;;;;;5031881;28;20479;-71
2022/06/14 00:33:46;;;;;;;22.00;8.57;;;;;;;;;;5031411;28;20441;-71
2022/06/14 00:36:20;;;;;;;26.63;8.67;;;;;;;;;;5031551;28;20445;-71
2022/06/14 00:38:48;;;;;;;22.90;7.20;;;;;;;;;;5031436;28;20938;-71
2022/06/14 00:41:30;;;;;;;23.10;7.40;;;;;;;;;;5031759;28;20452;-71
2022/06/14 00:43:59;;;;;;;22.90;7.80;;;;;;;;;;5031702;28;20826;-71
2022/06/14 00:46:29;;;;;;;21.90;8.20;;;;;;;;;;5031652;28;20534;-71
2022/06/14 00:49:00;;;;;;;19.63;7.60;;;;;;;;;;5031474;28;20441;-71
2022/06/14 00:51:31;;;;;;;25.37;7.50;;;;;;;;;;5031619;28;20476;-71
2022/06/14 00:54:02;;;;;;;23.37;8.43;;;;;;;;;;5031633;28;20815;-71
2022/06/14 00:56:33;;;;;;;16.13;6.40;;;;;;;;;;5031655;28;20437;-71
2022/06/14 00:59:03;;;;;;;24.10;7.80;;;;;;;;;;5031545;28;20444;-71
2022/06/14 01:01:34;;;;;;;19.40;7.23;;;;;;;;;;5034514;28;20467;-71
2022/06/14 01:04:05;;;;;;;24.10;7.13;;;;;;;;;;5035355;28;20459;-71
2022/06/14 01:06:38;;;;;;;27.73;7.60;;;;;;;;;;5035117;28;20973;-71
2022/06/14 01:09:07;;;;;;;18.77;6.60;;;;;;;;;;5035201;28;20864;-71
2022/06/14 01:11:37;;;;;;;25.13;8.00;;;;;;;;;;5035220;28;20503;-70
2022/06/14 01:14:07;;;;;;;19.93;6.50;;;;;;;;;;5034747;28;20433;-71
2022/06/14 01:16:35;;;;;;;18.43;7.40;;;;;;;;;;5034888;28;20528;-71
2022/06/14 01:19:03;;;;;;;17.90;6.30;;;;;;;;;;5034987;28;20441;-71
2022/06/14 01:21:30;;;;;;;21.87;6.57;;;;;;;;;;5034908;28;20456;-71
2022/06/14 01:23:59;;;;;;;16.60;6.30;;;;;;;;;;5034761;28;20463;-71
2022/06/14 01:26:28;;;;;;;19.00;6.73;;;;;;;;;;5034664;28;20440;-71
2022/06/14 01:28:59;;;;;;;20.47;7.50;;;;;;;;;;5034958;28;20437;-71
2022/06/14 01:31:28;;;;;;;22.53;7.17;;;;;;;;;;5034802;28;20486;-70
2022/06/14 01:33:57;;;;;;;19.00;6.90;;;;;;;;;;5034333;28;20468;-71
2022/06/14 01:36:27;;;;;;;21.03;7.77;;;;;;;;;;5034591;28;20445;-71
2022/06/14 01:38:55;;;;;;;17.63;7.53;;;;;;;;;;5034442;28;20951;-71
2022/06/14 01:41:31;;;;;;;21.67;7.30;;;;;;;;;;5034425;28;20456;-71
2022/06/14 01:44:09;;;;;;;17.80;6.97;;;;;;;;;;5034448;28;20506;-71
2022/06/14 01:46:41;;;;;;;23.90;7.00;;;;;;;;;;5034508;28;20547;-71
2022/06/14 01:52:03;;;;;;;21.13;7.40;;;;;;;;;;5034404;28;20480;-71
2022/06/14 01:54:34;;;;;;;20.77;6.53;;;;;;;;;;5034298;28;20444;-71
2022/06/14 01:57:09;;;;;;;17.50;6.37;;;;;;;;;;5034200;28;20886;-71
2022/06/14 01:59:42;;;;;;;28.83;7.00;;;;;;;;;;5034047;28;20446;-71
2022/06/14 02:02:12;;;;;;;24.80;7.80;;;;;;;;;;5033708;28;20552;-71
2022/06/14 02:04:43;;;;;;;20.07;8.30;;;;;;;;;;5034453;28;20829;-71
2022/06/14 02:07:14;;;;;;;22.50;8.47;;;;;;;;;;5034519;28;20924;-71
2022/06/14 02:09:49;;;;;;;19.87;7.47;;;;;;;;;;5033755;28;20942;-70
2022/06/14 02:12:32;;;;;;;21.40;7.10;;;;;;;;;;5033174;28;20498;-72
2022/06/14 02:15:02;;;;;;;19.13;7.07;;;;;;;;;;5033805;28;20969;-71
2022/06/14 02:17:31;;;;;;;21.83;7.37;;;;;;;;;;5034202;28;20437;-71
2022/06/14 02:20:01;;;;;;;18.67;6.10;;;;;;;;;;5033930;28;20452;-71
2022/06/14 02:22:32;;;;;;;18.43;7.83;;;;;;;;;;5033772;28;20441;-71
2022/06/14 02:25:03;;;;;;;19.73;7.70;;;;;;;;;;5033674;28;20455;-71
2022/06/14 02:27:35;;;;;;;22.80;7.93;;;;;;;;;;5033479;28;20452;-70
2022/06/14 02:30:05;;;;;;;30.60;9.50;;;;;;;;;;5033915;28;20449;-71
2022/06/14 02:32:36;;;;;;;25.57;11.83;;;;;;;;;;5033540;28;20481;-71
2022/06/14 02:35:07;;;;;;;33.93;11.53;;;;;;;;;;5033379;28;20460;-70
2022/06/14 02:37:38;;;;;;;27.73;13.27;;;;;;;;;;5033550;28;20445;-71
2022/06/14 02:40:08;;;;;;;27.20;12.53;;;;;;;;;;5033552;28;20451;-71
2022/06/14 02:42:40;;;;;;;26.93;12.67;;;;;;;;;;5033378;28;20441;-71
2022/06/14 02:45:09;;;;;;;33.90;8.87;;;;;;;;;;5033218;28;20445;-71
2022/06/14 02:47:39;;;;;;;25.20;8.93;;;;;;;;;;5032851;28;20451;-71
2022/06/14 02:50:10;;;;;;;29.40;8.63;;;;;;;;;;5033671;28;20437;-71
2022/06/14 02:52:40;;;;;;;31.47;9.47;;;;;;;;;;5033368;28;20483;-71
2022/06/14 02:55:10;;;;;;;21.03;8.53;;;;;;;;;;5032967;28;20449;-71
2022/06/14 02:57:41;;;;;;;17.77;7.57;;;;;;;;;;5033047;28;20525;-70
2022/06/14 03:00:10;;;;;;;23.60;9.10;;;;;;;;;;5032827;28;20445;-71
2022/06/14 03:02:41;;;;;;;23.13;11.10;;;;;;;;;;5032762;28;20837;-71
2022/06/14 03:05:10;;;;;;;30.57;10.27;;;;;;;;;;5033243;28;20460;-71
2022/06/14 03:07:40;;;;;;;21.00;9.33;;;;;;;;;;5032712;28;20973;-71
2022/06/14 03:10:08;;;;;;;21.47;8.93;;;;;;;;;;5032881;28;21047;-71
2022/06/14 03:12:42;;;;;;;25.40;9.10;;;;;;;;;;5032823;28;20896;-71
2022/06/14 03:15:16;;;;;;;22.03;9.90;;;;;;;;;;5032894;28;20443;-71
2022/06/14 03:17:52;;;;;;;25.70;10.17;;;;;;;;;;5032672;28;20443;-71
2022/06/14 03:20:26;;;;;;;29.20;7.50;;;;;;;;;;5032872;28;20450;-71
2022/06/14 03:22:57;;;;;;;21.57;8.40;;;;;;;;;;5031800;28;20451;-71
2022/06/14 03:25:27;;;;;;;23.40;9.30;;;;;;;;;;5032460;28;20433;-71
2022/06/14 03:28:01;;;;;;;26.37;12.33;;;;;;;;;;5032481;28;20492;-71
2022/06/14 03:30:31;;;;;;;26.20;10.33;;;;;;;;;;5032469;28;20455;-71
2022/06/14 03:33:02;;;;;;;28.10;10.53;;;;;;;;;;5032527;28;20580;-71
2022/06/14 03:35:31;;;;;;;27.47;11.43;;;;;;;;;;5032315;28;21028;-71
2022/06/14 03:38:02;;;;;;;25.37;11.57;;;;;;;;;;5032192;28;20467;-71
2022/06/14 03:40:29;;;;;;;21.03;10.33;;;;;;;;;;5032222;28;20451;-71
2022/06/14 03:42:59;;;;;;;26.30;10.70;;;;;;;;;;5032151;28;20809;-71
2022/06/14 03:45:33;;;;;;;21.10;8.10;;;;;;;;;;5032219;28;20964;-71
2022/06/14 03:48:01;;;;;;;15.87;6.37;;;;;;;;;;5032094;28;20858;-71
2022/06/14 03:50:31;;;;;;;18.27;6.90;;;;;;;;;;5032259;28;20440;-71
2022/06/14 03:53:05;;;;;;;23.27;8.40;;;;;;;;;;5031899;28;20485;-71
2022/06/14 03:55:41;;;;;;;21.17;9.20;;;;;;;;;;5031990;28;20984;-70
2022/06/14 03:58:17;;;;;;;24.63;9.43;;;;;;;;;;5032110;28;20444;-71
2022/06/14 04:00:49;;;;;;;22.07;9.47;;;;;;;;;;5031523;28;20809;-72
2022/06/14 04:03:32;;;;;;;23.50;10.87;;;;;;;;;;5032428;28;20444;-70
2022/06/14 04:06:09;;;;;;;19.23;8.37;;;;;;;;;;5032390;28;20438;-70
2022/06/14 04:08:43;;;;;;;22.53;9.77;;;;;;;;;;5031929;28;20446;-71
2022/06/14 04:11:17;;;;;;;22.70;9.20;;;;;;;;;;5031744;28;20841;-71
2022/06/14 04:13:49;;;;;;;24.37;12.10;;;;;;;;;;5031573;28;20488;-71
2022/06/14 04:16:19;;;;;;;21.90;9.33;;;;;;;;;;5031730;28;20443;-70
2022/06/14 04:18:49;;;;;;;20.38;7.88;;;;;;;;;;5031294;28;20451;-71
2022/06/14 04:21:23;;;;;;;22.83;9.25;;;;;;;;;;5031368;28;20811;-74
2022/06/14 04:23:53;;;;;;;20.58;8.18;;;;;;;;;;5030310;28;20451;-73
2022/06/14 04:26:24;;;;;;;22.25;8.70;;;;;;;;;;5030475;28;20443;-76
2022/06/14 04:28:56;;;;;;;20.97;8.77;;;;;;;;;;5037225;28;20208;-73
2022/06/14 04:31:29;;;;;;;17.07;7.30;;;;;;;;;;5031809;28;20826;-73
2022/06/14 04:33:58;;;;;;;22.40;7.37;;;;;;;;;;5032946;28;20481;-73
2022/06/14 04:36:34;;;;;;;18.20;5.63;;;;;;;;;;5035671;28;20451;-73
2022/06/14 04:39:04;;;;;;;18.27;5.50;;;;;;;;;;5036091;28;20440;-72
2022/06/14 04:41:33;;;;;;;17.67;6.73;;;;;;;;;;5035833;28;20449;-74
2022/06/14 04:44:07;;;;;;;27.47;6.00;;;;;;;;;;5035415;28;20447;-73
2022/06/14 04:46:36;;;;;;;28.93;7.23;;;;;;;;;;5035318;28;20444;-75
2022/06/14 04:49:07;;;;;;;20.40;9.47;;;;;;;;;;5035316;28;20444;-73
2022/06/14 04:51:41;;;;;;;24.33;9.77;;;;;;;;;;5035046;28;20432;-74
2022/06/14 04:54:10;;;;;;;20.37;10.10;;;;;;;;;;5035492;28;20574;-73
2022/06/14 04:56:41;;;;;;;19.73;9.97;;;;;;;;;;5043699;28;20487;-74
2022/06/14 04:59:13;;;;;;;22.20;10.00;;;;;;;;;;5067020;28;20472;-75
2022/06/14 05:01:45;;;;;;;22.47;11.33;;;;;;;;;;5056433;28;20480;-74
2022/06/14 05:04:17;;;;;;;20.63;10.47;;;;;;;;;;5048586;28;20513;-73
2022/06/14 05:06:46;;;;;;;22.07;11.53;;;;;;;;;;5055001;28;20983;-73
2022/06/14 05:09:16;;;;;;;21.87;10.20;;;;;;;;;;5054480;28;20435;-73
2022/06/14 05:11:47;;;;;;;24.60;11.43;;;;;;;;;;5053504;28;21000;-74
2022/06/14 05:14:19;;;;;;;23.40;9.10;;;;;;;;;;5055016;28;20479;-74
2022/06/14 05:16:48;;;;;;;20.50;10.00;;;;;;;;;;5055260;28;20506;-73
2022/06/14 05:19:18;;;;;;;20.10;9.80;;;;;;;;;;5053033;28;20446;-74
2022/06/14 05:21:48;;;;;;;22.70;9.37;;;;;;;;;;5052413;28;20967;-74
2022/06/14 05:24:15;;;;;;;21.03;10.00;;;;;;;;;;5052436;28;20440;-74
2022/06/14 05:26:52;;;;;;;21.57;10.40;;;;;;;;;;5050831;28;20439;-74
2022/06/14 05:29:27;;;;;;;22.33;9.60;;;;;;;;;;5050459;28;20436;-74
2022/06/14 05:32:00;;;;;;;21.23;9.40;;;;;;;;;;5050260;28;20532;-74
2022/06/14 05:34:32;;;;;;;19.07;8.53;;;;;;;;;;5051834;28;20440;-74
2022/06/14 05:37:03;;;;;;;20.53;9.63;;;;;;;;;;5052913;28;20474;-73
2022/06/14 05:39:33;;;;;;;23.90;9.53;;;;;;;;;;5053609;28;20440;-73
2022/06/14 05:42:04;;;;;;;21.70;8.00;;;;;;;;;;5054695;28;20519;-74
2022/06/14 05:44:36;;;;;;;18.90;9.33;;;;;;;;;;5054457;28;20443;-73
2022/06/14 05:47:07;;;;;;;21.37;8.60;;;;;;;;;;5053531;28;20459;-73
2022/06/14 05:49:36;;;;;;;18.80;8.13;;;;;;;;;;5054367;28;20440;-74
2022/06/14 05:52:06;;;;;;;17.80;8.30;;;;;;;;;;5054157;28;20448;-74
2022/06/14 05:54:35;;;;;;;18.77;7.73;;;;;;;;;;5054174;28;20442;-74
2022/06/14 05:57:07;;;;;;;17.23;7.70;;;;;;;;;;5054299;28;20452;-74
2022/06/14 05:59:40;;;;;;;23.53;7.67;;;;;;;;;;5053891;28;20502;-74
2022/06/14 06:02:13;;;;;;;19.73;8.17;;;;;;;;;;5053964;28;20464;-74
2022/06/14 06:04:42;;;;;;;19.97;7.50;;;;;;;;;;5054243;28;20956;-74
2022/06/14 06:07:13;;;;;;;18.03;8.33;;;;;;;;;;5054185;28;20526;-74
2022/06/14 06:09:42;;;;;;;18.20;8.07;;;;;;;;;;5053701;28;20443;-74
2022/06/14 06:12:11;;;;;;;19.87;7.20;;;;;;;;;;5054084;28;20486;-73
2022/06/14 06:14:42;;;;;;;18.60;7.10;;;;;;;;;;5053935;28;20448;-73
2022/06/14 06:17:12;;;;;;;18.57;6.90;;;;;;;;;;5054151;28;20464;-74
2022/06/14 06:19:44;;;;;;;16.77;6.87;;;;;;;;;;5053666;28;20444;-74
2022/06/14 06:22:14;;;;;;;22.07;11.70;;;;;;;;;;5053800;28;20448;-73
2022/06/14 06:24:46;;;;;;;25.53;12.70;;;;;;;;;;5053629;28;20440;-73
2022/06/14 06:27:14;;;;;;;19.23;7.93;;;;;;;;;;5053928;28;20444;-74
2022/06/14 06:29:47;;;;;;;18.20;7.07;;;;;;;;;;5053583;28;20440;-73
2022/06/14 06:32:14;;;;;;;16.30;6.20;;;;;;;;;;5053488;28;20443;-73
2022/06/14 06:34:42;;;;;;;19.97;7.17;;;;;;;;;;5053193;28;20483;-74
2022/06/14 06:37:13;;;;;;;15.63;6.63;;;;;;;;;;5053433;28;20956;-74
2022/06/14 06:39:46;;;;;;;26.77;6.70;;;;;;;;;;5053363;28;20439;-74
2022/06/14 06:42:14;;;;;;;17.93;6.50;;;;;;;;;;5053253;28;20432;-74
2022/06/14 06:44:49;;;;;;;18.17;6.77;;;;;;;;;;5053398;28;20447;-74
2022/06/14 06:47:19;;;;;;;15.53;6.10;;;;;;;;;;5053235;28;20450;-74
2022/06/14 06:49:53;;;;;;;18.37;7.03;;;;;;;;;;5053129;28;20509;-74
2022/06/14 06:52:22;;;;;;;15.60;6.70;;;;;;;;;;5053082;28;20443;-73
2022/06/14 06:54:54;;;;;;;17.03;6.20;;;;;;;;;;5052991;28;20490;-74
2022/06/14 06:57:24;;;;;;;15.67;7.00;;;;;;;;;;5052933;28;20436;-74
2022/06/14 06:59:54;;;;;;;19.10;7.20;;;;;;;;;;5052549;28;20452;-74
2022/06/14 07:02:24;;;;;;;18.23;6.70;;;;;;;;;;5052956;28;20993;-74
2022/06/14 07:05:05;;;;;;;19.90;7.00;;;;;;;;;;5052861;28;20975;-74
2022/06/14 07:07:37;;;;;;;17.13;7.33;;;;;;;;;;5052789;28;20853;-74
2022/06/14 07:10:06;;;;;;;17.50;7.33;;;;;;;;;;5052621;28;20555;-74
2022/06/14 07:12:36;;;;;;;17.00;6.67;;;;;;;;;;5053116;28;20482;-74
2022/06/14 07:15:10;;;;;;;18.17;6.90;;;;;;;;;;5052604;28;20440;-74
2022/06/14 07:17:39;;;;;;;19.87;7.73;;;;;;;;;;5052391;28;20447;-74
2022/06/14 07:20:10;;;;;;;21.70;6.63;;;;;;;;;;5052597;28;20531;-74
2022/06/14 07:22:40;;;;;;;17.60;6.63;;;;;;;;;;5052416;28;20436;-74
2022/06/14 07:25:11;;;;;;;19.00;6.73;;;;;;;;;;5052436;28;21070;-74
2022/06/14 07:27:40;;;;;;;16.40;6.63;;;;;;;;;;5052669;28;20424;-74
2022/06/14 07:30:14;;;;;;;15.73;6.70;;;;;;;;;;5052253;28;21020;-74
2022/06/14 07:32:46;;;;;;;16.23;6.33;;;;;;;;;;5052274;28;20454;-74
2022/06/14 07:35:14;;;;;;;17.23;7.37;;;;;;;;;;5052184;28;20450;-74
2022/06/14 07:37:44;;;;;;;16.43;6.60;;;;;;;;;;5052201;28;20878;-75
2022/06/14 07:40:15;;;;;;;17.40;6.60;;;;;;;;;;5052522;28;20447;-74
2022/06/14 07:42:45;;;;;;;15.70;6.07;;;;;;;;;;5052365;28;20446;-74
2022/06/14 07:45:18;;;;;;;18.53;6.57;;;;;;;;;;5052034;28;20542;-74
2022/06/14 07:47:47;;;;;;;17.60;6.90;;;;;;;;;;5051822;28;20440;-74
2022/06/14 07:50:16;;;;;;;18.63;7.30;;;;;;;;;;5051988;28;20450;-74
2022/06/14 07:52:45;;;;;;;17.50;7.33;;;;;;;;;;5051879;28;20440;-73
2022/06/14 07:55:16;;;;;;;22.43;7.50;;;;;;;;;;5052056;28;20444;-74
2022/06/14 07:57:46;;;;;;;19.90;8.33;;;;;;;;;;5052015;28;20523;-74
2022/06/14 08:03:05;;;;;;;18.27;7.17;;;;;;;;;;5052155;28;20447;-74
2022/06/14 08:05:35;;;;;;;19.90;6.27;;;;;;;;;;5051575;28;20448;-74
2022/06/14 08:08:05;;;;;;;15.57;6.10;;;;;;;;;;5051516;28;20980;-74
2022/06/14 08:10:34;;;;;;;17.97;7.00;;;;;;;;;;5051750;28;20482;-74
2022/06/14 08:13:03;;;;;;;16.73;7.10;;;;;;;;;;5051673;28;20434;-74
2022/06/14 08:15:33;;;;;;;15.83;6.30;;;;;;;;;;5051887;28;20449;-73
2022/06/14 08:18:06;;;;;;;17.30;6.90;;;;;;;;;;5051864;28;20444;-74
2022/06/14 08:20:37;;;;;;;21.43;6.43;;;;;;;;;;5051678;28;20440;-74
2022/06/14 08:23:07;;;;;;;19.87;8.50;;;;;;;;;;5051639;28;20971;-73
2022/06/14 08:25:37;;;;;;;18.90;8.00;;;;;;;;;;5051428;28;20454;-74
2022/06/14 08:28:07;;;;;;;17.80;7.93;;;;;;;;;;5051940;28;20440;-73
2022/06/14 08:30:36;;;;;;;22.70;7.13;;;;;;;;;;5051571;28;21030;-74
2022/06/14 08:33:07;;;;;;;20.43;7.63;;;;;;;;;;5051406;28;20819;-74
2022/06/14 08:35:37;;;;;;;22.83;8.20;;;;;;;;;;5051203;28;20448;-74
2022/06/14 08:38:11;;;;;;;20.43;6.60;;;;;;;;;;5051706;28;20435;-74
2022/06/14 08:40:46;;;;;;;18.13;7.40;;;;;;;;;;5051593;28;20945;-74
2022/06/14 08:43:14;;;;;;;17.20;6.97;;;;;;;;;;5051476;28;21014;-74
2022/06/14 08:45:44;;;;;;;19.60;7.13;;;;;;;;;;5051286;28;20975;-73
2022/06/14 08:48:24;;;;;;;16.57;6.30;;;;;;;;;;5051415;28;20890;-73
2022/06/14 08:51:11;;;;;;;17.20;6.23;;;;;;;;;;5051654;28;20521;-74
2022/06/14 08:54:05;;;;;;;18.83;6.37;;;;;;;;;;5051492;28;20475;-73
2022/06/14 08:56:52;;;;;;;16.30;5.60;;;;;;;;;;5051367;28;20450;-74
2022/06/14 08:59:26;;;;;;;18.33;5.27;;;;;;;;;;5051301;28;20450;-74
2022/06/14 09:02:02;;;;;;;15.57;5.60;;;;;;;;;;5051185;28;20839;-74
2022/06/14 09:04:44;;;;;;;17.70;6.03;;;;;;;;;;5051430;28;20447;-73
2022/06/14 09:07:19;;;;;;;16.33;6.63;;;;;;;;;;5051748;28;20455;-74
2022/06/14 09:09:56;;;;;;;21.00;7.77;;;;;;;;;;5051047;28;20970;-74
2022/06/14 09:12:38;;;;;;;15.30;5.30;;;;;;;;;;5051322;28;21057;-75
2022/06/14 09:15:16;;;;;;;16.43;5.80;;;;;;;;;;5049591;28;20493;-74
2022/06/14 09:18:01;;;;;;;17.53;6.60;;;;;;;;;;5051278;28;20494;-74
2022/06/14 09:20:35;;;;;;;20.63;6.80;;;;;;;;;;5041742;28;20811;-74
2022/06/14 09:23:09;;;;;;;17.77;6.77;;;;;;;;;;5054879;28;20450;-74
2022/06/14 09:25:41;;;;;;;17.23;6.60;;;;;;;;;;5054405;28;20443;-74
2022/06/14 09:28:16;;;;;;;14.63;5.50;;;;;;;;;;5054839;28;20941;-74
2022/06/14 09:30:48;;;;;;;18.70;7.00;;;;;;;;;;5054477;28;20872;-74
2022/06/14 09:33:36;;;;;;;19.60;7.37;;;;;;;;;;5054544;28;20538;-74
2022/06/14 09:36:24;;;;;;;23.53;7.30;;;;;;;;;;5029492;28;20439;-74
2022/06/14 09:39:07;;;;;;;18.77;6.80;;;;;;;;;;5054391;28;20443;-74
2022/06/14 09:41:47;;;;;;;17.40;6.27;;;;;;;;;;5054761;28;20789;-73
2022/06/14 09:44:32;;;;;;;23.70;6.27;;;;;;;;;;5054336;28;20530;-74
2022/06/14 09:47:17;;;;;;;18.03;6.67;;;;;;;;;;5024311;28;20471;-74
2022/06/14 09:50:03;;;;;;;17.43;7.50;;;;;;;;;;5054280;28;20877;-74
2022/06/14 09:52:46;;;;;;;18.57;7.93;;;;;;;;;;5054306;28;20442;-74
2022/06/14 09:55:24;;;;;;;17.43;6.50;;;;;;;;;;5041751;28;21020;-74
2022/06/14 09:58:01;;;;;;;17.60;6.07;;;;;;;;;;5053937;28;20444;-74
2022/06/14 10:00:33;;;;;;;15.20;5.67;;;;;;;;;;5054423;28;20841;-73
2022/06/14 10:03:19;;;;;;;16.73;5.60;;;;;;;;;;5053595;28;21011;-74
2022/06/14 10:05:53;;;;;;;16.70;6.40;;;;;;;;;;5053908;28;20513;-74
2022/06/14 10:08:35;;;;;;;16.90;6.50;;;;;;;;;;5054293;28;20444;-74
2022/06/14 10:11:13;;;;;;;15.00;5.43;;;;;;;;;;5054016;28;20490;-74
2022/06/14 10:13:53;;;;;;;19.07;6.67;;;;;;;;;;5053432;28;20439;-75
2022/06/14 10:16:34;;;;;;;18.17;5.80;;;;;;;;;;5053715;28;20442;-74
2022/06/14 10:19:08;;;;;;;16.47;5.23;;;;;;;;;;5053630;28;20432;-74
2022/06/14 10:21:40;;;;;;;16.43;5.63;;;;;;;;;;5053559;28;20440;-74
2022/06/14 10:24:17;;;;;;;15.40;5.70;;;;;;;;;;5053626;28;20946;-74
2022/06/14 10:29:47;;;;;;;20.73;6.23;;;;;;;;;;5053360;28;20976;-74
2022/06/14 10:32:41;;;;;;;20.70;8.13;;;;;;;;;;5053188;28;20439;-74
2022/06/14 10:35:11;;;;;;;16.17;6.10;;;;;;;;;;5053828;28;20870;-74
2022/06/14 10:37:43;;;;;;;19.00;7.30;;;;;;;;;;5053422;28;20440;-74
2022/06/14 10:40:30;;;;;;;19.87;7.33;;;;;;;;;;5053504;28;20443;-74
2022/06/14 10:43:03;;;;;;;19.37;7.27;;;;;;;;;;5053394;28;20466;-74
2022/06/14 10:45:33;;;;;;;16.87;6.67;;;;;;;;;;5053316;28;20438;-74
2022/06/14 10:48:18;;;;;;;17.17;7.00;;;;;;;;;;5053432;28;20964;-74
2022/06/14 10:50:51;;;;;;;18.87;6.70;;;;;;;;;;5023223;28;20439;-74
2022/06/14 10:53:25;;;;;;;17.63;6.87;;;;;;;;;;5053108;28;20959;-74
2022/06/14 10:56:14;;;;;;;20.20;7.03;;;;;;;;;;5052980;28;20493;-74
2022/06/14 10:58:59;;;;;;;25.20;7.87;;;;;;;;;;5053259;28;20443;-73
2022/06/14 11:01:33;;;;;;;18.60;7.23;;;;;;;;;;5052606;28;20470;-74
2022/06/14 11:04:05;;;;;;;19.40;7.33;;;;;;;;;;5052956;28;20452;-74
2022/06/14 11:06:51;;;;;;;21.90;7.20;;;;;;;;;;5052951;28;20457;-74
2022/06/14 11:09:26;;;;;;;18.73;7.37;;;;;;;;;;5053009;28;20445;-74
2022/06/14 11:12:09;;;;;;;21.00;7.00;;;;;;;;;;5052743;28;20830;-74
2022/06/14 11:14:42;;;;;;;15.90;5.93;;;;;;;;;;5053306;28;20862;-73
2022/06/14 11:17:27;;;;;;;17.13;5.50;;;;;;;;;;5053061;28;20501;-74
2022/06/14 11:20:04;;;;;;;17.70;6.23;;;;;;;;;;5052409;28;20446;-73
2022/06/14 11:22:35;;;;;;;18.50;6.70;;;;;;;;;;5052548;28;20435;-74
2022/06/14 11:25:06;;;;;;;17.37;6.43;;;;;;;;;;5052470;28;20520;-74
2022/06/14 11:27:38;;;;;;;18.90;6.80;;;;;;;;;;5052327;28;20437;-74
2022/06/14 11:30:15;;;;;;;17.50;6.03;;;;;;;;;;5052528;28;20439;-74
2022/06/14 11:32:46;;;;;;;18.13;5.83;;;;;;;;;;5052515;28;20820;-74
2022/06/14 11:35:19;;;;;;;17.03;5.57;;;;;;;;;;5052501;28;20488;-74
2022/06/14 11:37:55;;;;;;;17.37;5.57;;;;;;;;;;5052344;28;20434;-74
2022/06/14 11:40:24;;;;;;;16.93;5.63;;;;;;;;;;5052292;28;20644;-74
2022/06/14 11:43:08;;;;;;;14.83;5.40;;;;;;;;;;5052175;28;20443;-74
2022/06/14 11:45:43;;;;;;;15.77;6.27;;;;;;;;;;5052305;28;20434;-75
2022/06/14 11:48:14;;;;;;;15.70;5.50;;;;;;;;;;5052108;28;20443;-74
2022/06/14 11:50:44;;;;;;;18.13;5.97;;;;;;;;;;5052281;28;20443;-74
2022/06/14 11:53:32;;;;;;;14.77;5.30;;;;;;;;;;5052343;28;20815;-74
2022/06/14 11:56:03;;;;;;;15.67;5.00;;;;;;;;;;5047815;28;20874;-74
2022/06/14 11:58:36;;;;;;;17.13;5.63;;;;;;;;;;5052634;28;20439;-74
2022/06/14 12:01:14;;;;;;;27.20;7.17;;;;;;;;;;5051535;28;20444;-74
2022/06/14 12:03:51;;;;;;;17.67;6.80;;;;;;;;;;5051700;28;20535;-74
2022/06/14 12:06:24;;;;;;;15.00;5.40;;;;;;;;;;5052469;28;20452;-76
2022/06/14 12:09:09;;;;;;;16.63;4.50;;;;;;;;;;5052087;28;20442;-74
2022/06/14 12:11:40;;;;;;;18.73;5.60;;;;;;;;;;5051853;28;21022;-74
2022/06/14 12:14:31;;;;;;;15.43;4.87;;;;;;;;;;5051746;28;20980;-74
2022/06/14 12:17:04;;;;;;;14.83;4.97;;;;;;;;;;5051769;28;20436;-76
2022/06/14 12:19:33;;;;;;;15.40;5.10;;;;;;;;;;5051601;28;20450;-75
2022/06/14 12:22:26;;;;;;;14.67;5.37;;;;;;;;;;5051779;28;20943;-74
2022/06/14 12:27:49;;;;;;;33.37;7.07;;;;;;;;;;5015486;28;20432;-74
2022/06/14 12:30:19;;;;;;;14.97;5.10;;;;;;;;;;5052136;28;20454;-74
2022/06/14 12:32:53;;;;;;;15.10;5.40;;;;;;;;;;5052008;28;20448;-74
2022/06/14 12:35:23;;;;;;;19.80;6.30;;;;;;;;;;5051511;28;20513;-74
2022/06/14 12:37:53;;;;;;;15.73;5.93;;;;;;;;;;5051308;28;20964;-74
2022/06/14 12:40:25;;;;;;;19.37;6.03;;;;;;;;;;5051528;28;20439;-74
2022/06/14 12:42:59;;;;;;;16.67;6.03;;;;;;;;;;5051630;28;20985;-74
2022/06/14 12:45:30;;;;;;;14.93;5.10;;;;;;;;;;5051509;28;20967;-74
2022/06/14 12:48:05;;;;;;;17.70;6.40;;;;;;;;;;5051728;28;20440;-74
2022/06/14 12:50:35;;;;;;;16.40;5.80;;;;;;;;;;5051458;28;20952;-74
2022/06/14 12:53:04;;;;;;;16.47;6.27;;;;;;;;;;5051832;28;20855;-74
2022/06/14 12:55:36;;;;;;;22.47;6.70;;;;;;;;;;5053583;28;21027;-73
2022/06/14 12:58:08;;;;;;;16.90;6.30;;;;;;;;;;5055233;28;20454;-73
2022/06/14 13:00:39;;;;;;;17.20;6.40;;;;;;;;;;5055706;28;20802;-73
2022/06/14 13:03:13;;;;;;;15.43;4.67;;;;;;;;;;5054985;28;20516;-73
2022/06/14 13:05:44;;;;;;;23.13;5.97;;;;;;;;;;5055232;28;20450;-73
2022/06/14 13:08:16;;;;;;;28.83;6.00;;;;;;;;;;5055233;28;20440;-72
2022/06/14 13:10:50;;;;;;;25.70;7.27;;;;;;;;;;5055011;28;20481;-72
2022/06/14 13:13:41;;;;;;;20.70;5.23;;;;;;;;;;5055235;28;20450;-73
2022/06/14 13:16:15;;;;;;;28.10;6.67;;;;;;;;;;5039964;28;20931;-73
2022/06/14 13:18:51;;;;;;;23.77;6.63;;;;;;;;;;5055230;28;20433;-72
2022/06/14 13:21:22;;;;;;;18.37;5.87;;;;;;;;;;5054838;28;20806;-73
2022/06/14 13:23:55;;;;;;;23.23;7.17;;;;;;;;;;5054777;28;20449;-72
2022/06/14 13:26:28;;;;;;;24.17;6.50;;;;;;;;;;5055110;28;20915;-73
2022/06/14 13:29:02;;;;;;;24.80;5.90;;;;;;;;;;5054717;28;21024;-72
2022/06/14 13:31:46;;;;;;;18.67;7.00;;;;;;;;;;5054650;28;20564;-73
2022/06/14 13:34:22;;;;;;;21.73;6.50;;;;;;;;;;5055206;28;20444;-73
2022/06/14 13:36:55;;;;;;;17.50;6.13;;;;;;;;;;5054750;28;20481;-73
2022/06/14 13:39:28;;;;;;;16.20;6.20;;;;;;;;;;5054722;28;20442;-73
2022/06/14 13:42:06;;;;;;;17.77;6.00;;;;;;;;;;5054400;28;20425;-73
2022/06/14 13:44:38;;;;;;;18.30;6.30;;;;;;;;;;5054385;28;20450;-73
2022/06/14 13:47:10;;;;;;;17.27;5.83;;;;;;;;;;5054939;28;20465;-73
2022/06/14 13:49:41;;;;;;;20.07;7.47;;;;;;;;;;5054026;28;20446;-73
2022/06/14 13:52:10;;;;;;;17.17;5.50;;;;;;;;;;5054222;28;20435;-73
2022/06/14 13:54:39;;;;;;;21.30;5.87;;;;;;;;;;5054429;28;20448;-73
2022/06/14 13:57:15;;;;;;;21.03;5.73;;;;;;;;;;5054376;28;20428;-73
2022/06/14 13:59:45;;;;;;;20.13;5.90;;;;;;;;;;5054038;28;20446;-73
2022/06/14 14:02:18;;;;;;;20.90;5.97;;;;;;;;;;5053863;28;20471;-73
2022/06/14 14:04:51;;;;;;;16.50;5.40;;;;;;;;;;5054053;28;20438;-74
2022/06/14 14:07:22;;;;;;;30.73;6.33;;;;;;;;;;5053433;28;20438;-73
2022/06/14 14:09:56;;;;;;;20.40;6.17;;;;;;;;;;5054116;28;20467;-73
2022/06/14 14:12:26;;;;;;;19.30;5.13;;;;;;;;;;5054007;28;20475;-73
2022/06/14 14:15:13;;;;;;;17.90;5.33;;;;;;;;;;5053805;28;20934;-73
2022/06/14 14:17:43;;;;;;;21.53;6.90;;;;;;;;;;5054229;28;20431;-73
2022/06/14 14:20:23;;;;;;;16.27;4.87;;;;;;;;;;5054116;28;20440;-74
2022/06/14 14:22:55;;;;;;;18.43;5.47;;;;;;;;;;5053780;28;20942;-74
2022/06/14 14:25:25;;;;;;;16.67;6.27;;;;;;;;;;5053735;28;20452;-75
2022/06/14 14:27:56;;;;;;;16.53;4.63;;;;;;;;;;5053398;28;20446;-74
2022/06/14 14:30:40;;;;;;;15.70;5.20;;;;;;;;;;5053686;28;20437;-75
2022/06/14 14:33:13;;;;;;;21.23;5.60;;;;;;;;;;5053587;28;20979;-74
2022/06/14 14:35:44;;;;;;;21.90;6.87;;;;;;;;;;5053393;28;20869;-74
2022/06/14 14:38:13;;;;;;;22.83;5.03;;;;;;;;;;5053384;28;20811;-74
2022/06/14 14:41:32;;;;;;;15.60;5.33;;;;;;;;;;5054042;28;20445;-74
2022/06/14 14:43:29;;;;;;;19.57;5.30;;;;;;;;;;5053332;28;20443;-74
2022/06/14 14:46:03;;;;;;;16.33;5.30;;;;;;;;;;5053406;28;20450;-74
2022/06/14 14:48:36;;;;;;;16.70;5.60;;;;;;;;;;5053310;28;20439;-74
2022/06/14 14:51:08;;;;;;;17.70;6.17;;;;;;;;;;5053768;28;20442;-74
2022/06/14 14:53:38;;;;;;;15.70;5.20;;;;;;;;;;5052912;28;20451;-74
2022/06/14 14:56:13;;;;;;;19.30;5.93;;;;;;;;;;5053045;28;20489;-74
2022/06/14 14:58:43;;;;;;;25.03;6.60;;;;;;;;;;5053248;28;20455;-74
2022/06/14 15:06:49;;;;;;;15.43;5.20;;;;;;;;;;5053181;28;20541;-74
2022/06/14 15:09:19;;;;;;;15.00;4.77;;;;;;;;;;5052676;28;20994;-73
2022/06/14 15:11:52;;;;;;;17.33;5.67;;;;;;;;;;5052671;28;20485;-73
2022/06/14 15:14:22;;;;;;;14.27;4.27;;;;;;;;;;5052877;28;20437;-75
2022/06/14 15:19:53;;;;;;;19.80;4.17;;;;;;;;;;5052720;28;20570;-74
2022/06/14 15:19:56;;;;;;;19.30;6.07;;;;;;;;;;5051425;28;20909;-75